1B2 weather

Public forecast

Using degrees Fahrenheit for public forecast. Weather courtesy of forecast.io.

Closest aviation weather report (METAR) to Katama Airpark

Closest report is Martha's Vineyard Airport, 4.6 nm (8.4 km) WNW. Retrieved 2020/08/14 06:53 UTC (1 hour ago):

KMVY 140653Z AUTO 01003KT 9SM FEW080 SCT100 21/20 A3003 RMK AO2 SLP168 T02110200

Closest aviation forecast (TAF) to Katama Airpark

Closest forecast is Cape Cod Coast Guard Air Station, 18.0 nm (33.4 km) N. Retrieved 2020/08/14 06:42 UTC (1 hour ago):

TAF KFMH 140540Z 1406/1506 00000KT P6SM SKC FM140800 01003KT P6SM SCT200 FM141200 04005KT P6SM BKN200